Time;durP1;ratioP1;P1;durP2;ratioP2;P2;SDS_P1;SDS_P2;PMS_P1;PMS_P2;Temp;Humidity;BMP_temperature;BMP_pressure;BME280_temperature;BME280_humidity;BME280_pressure;Samples;Min_cycle;Max_cycle;Signal;HPM_P1;HPM_P2
2023/09/19 00:02:18;;;;;;;7.72;3.08;;;;;;;;;;5008026;27;98557;-63
2023/09/19 00:04:45;;;;;;;7.90;3.67;;;;;;;;;;5010557;27;99449;-63
2023/09/19 00:07:11;;;;;;;15.25;3.88;;;;;;;;;;5013172;27;97725;-63
2023/09/19 00:09:38;;;;;;;16.42;3.60;;;;;;;;;;5008949;27;98478;-63
2023/09/19 00:12:09;;;;;;;13.48;2.90;;;;;;;;;;5016967;27;100112;-63
2023/09/19 00:14:38;;;;;;;11.85;3.30;;;;;;;;;;5006978;27;99279;-63
2023/09/19 00:17:08;;;;;;;6.20;1.50;;;;;;;;;;5013090;27;100301;-63
2023/09/19 00:19:35;;;;;;;12.00;2.90;;;;;;;;;;5009093;27;99458;-63
2023/09/19 00:22:02;;;;;;;6.35;2.20;;;;;;;;;;5008404;27;98847;-63
2023/09/19 00:24:29;;;;;;;22.77;4.90;;;;;;;;;;5009638;27;99128;-63
2023/09/19 00:26:55;;;;;;;7.60;2.70;;;;;;;;;;5011425;27;98653;-63
2023/09/19 00:29:23;;;;;;;14.18;3.45;;;;;;;;;;5014272;27;100171;-63
2023/09/19 00:31:49;;;;;;;9.82;2.80;;;;;;;;;;5012962;27;99946;-63
2023/09/19 00:34:16;;;;;;;6.90;2.42;;;;;;;;;;5008620;27;100289;-63
2023/09/19 00:36:43;;;;;;;16.90;3.30;;;;;;;;;;5012965;27;99349;-63
2023/09/19 00:39:10;;;;;;;12.38;3.10;;;;;;;;;;5008270;27;100209;-63
2023/09/19 00:41:36;;;;;;;7.45;2.22;;;;;;;;;;5014642;27;98653;-63
2023/09/19 00:44:03;;;;;;;13.13;3.00;;;;;;;;;;5015610;27;99322;-63
2023/09/19 00:46:32;;;;;;;10.20;2.17;;;;;;;;;;5015494;27;99495;-63
2023/09/19 00:48:59;;;;;;;12.63;2.97;;;;;;;;;;5019994;27;99178;-62
2023/09/19 00:51:27;;;;;;;11.43;2.53;;;;;;;;;;5012687;27;101219;-63
2023/09/19 00:53:53;;;;;;;14.85;2.50;;;;;;;;;;5013167;27;99488;-63
2023/09/19 00:56:20;;;;;;;10.93;2.53;;;;;;;;;;5012676;27;100531;-64
2023/09/19 00:58:47;;;;;;;17.70;3.78;;;;;;;;;;5013797;27;99486;-63
2023/09/19 01:01:14;;;;;;;14.38;2.85;;;;;;;;;;5018931;27;98614;-63
2023/09/19 01:03:41;;;;;;;15.18;3.70;;;;;;;;;;5017237;27;99705;-63
2023/09/19 01:06:08;;;;;;;11.95;2.75;;;;;;;;;;5009514;27;99852;-62
2023/09/19 01:08:36;;;;;;;9.50;2.20;;;;;;;;;;5014363;27;98640;-63
2023/09/19 01:11:14;;;;;;;10.57;2.72;;;;;;;;;;5008677;27;99535;-63
2023/09/19 01:13:53;;;;;;;14.23;2.63;;;;;;;;;;5018307;27;98641;-64
2023/09/19 01:16:26;;;;;;;10.65;2.58;;;;;;;;;;5019796;27;101536;-63
2023/09/19 01:18:56;;;;;;;10.27;2.25;;;;;;;;;;5009720;27;99472;-63
2023/09/19 01:21:23;;;;;;;;;;;;;;;;;;5014304;27;97758;-63
2023/09/19 01:24:15;;;;;;;6.60;2.25;;;;;;;;;;5016326;27;126930;-63
2023/09/19 01:26:55;;;;;;;12.85;2.55;;;;;;;;;;4997552;27;99317;-63
2023/09/19 01:29:29;;;;;;;14.75;2.72;;;;;;;;;;5015512;27;100081;-63
2023/09/19 01:31:57;;;;;;;14.70;2.67;;;;;;;;;;5015614;27;100238;-63
2023/09/19 01:34:26;;;;;;;20.25;2.63;;;;;;;;;;5015320;27;98556;-63
2023/09/19 01:36:53;;;;;;;9.35;2.67;;;;;;;;;;5015118;27;100743;-63
2023/09/19 01:39:19;;;;;;;10.45;2.50;;;;;;;;;;5012821;27;99422;-63
2023/09/19 01:41:49;;;;;;;15.93;2.75;;;;;;;;;;5021678;27;98805;-63
2023/09/19 01:44:29;;;;;;;14.23;3.10;;;;;;;;;;5020040;27;100243;-63
2023/09/19 01:46:58;;;;;;;15.13;3.20;;;;;;;;;;5010939;27;98351;-63
2023/09/19 01:49:46;;;;;;;17.42;3.08;;;;;;;;;;5012360;27;98581;-63
2023/09/19 01:52:19;;;;;;;14.05;3.30;;;;;;;;;;5012942;27;99163;-63
2023/09/19 01:55:07;;;;;;;13.00;3.20;;;;;;;;;;5016370;27;101322;-63
2023/09/19 01:57:35;;;;;;;15.40;3.33;;;;;;;;;;5004298;27;100950;-62
2023/09/19 02:00:09;;;;;;;11.77;3.22;;;;;;;;;;5016725;27;101947;-62
2023/09/19 02:02:37;;;;;;;22.90;3.58;;;;;;;;;;5014286;27;98888;-62
2023/09/19 02:05:04;;;;;;;16.25;3.28;;;;;;;;;;5009678;27;99492;-63
2023/09/19 02:07:33;;;;;;;17.45;3.20;;;;;;;;;;5011720;27;99451;-63
2023/09/19 02:10:00;;;;;;;16.00;3.17;;;;;;;;;;5014888;27;98627;-63
2023/09/19 02:12:27;;;;;;;13.93;3.15;;;;;;;;;;5023777;27;100198;-63
2023/09/19 02:14:53;;;;;;;13.38;3.13;;;;;;;;;;5015749;27;99510;-64
2023/09/19 02:17:19;;;;;;;14.10;2.78;;;;;;;;;;5014391;27;98531;-63
2023/09/19 02:19:46;;;;;;;16.08;3.05;;;;;;;;;;5010019;27;100230;-63
2023/09/19 02:22:14;;;;;;;16.00;3.28;;;;;;;;;;5011197;27;98640;-63
2023/09/19 02:24:40;;;;;;;12.40;2.55;;;;;;;;;;5010273;27;99200;-63
2023/09/19 02:27:07;;;;;;;17.75;3.03;;;;;;;;;;5008971;27;100006;-62
2023/09/19 02:29:34;;;;;;;15.10;2.75;;;;;;;;;;5012605;27;100260;-63
2023/09/19 02:32:01;;;;;;;17.83;4.05;;;;;;;;;;5011706;27;100445;-63
2023/09/19 02:34:28;;;;;;;15.93;2.97;;;;;;;;;;5016354;27;99382;-64
2023/09/19 02:36:56;;;;;;;11.38;2.38;;;;;;;;;;5013940;27;98008;-63
2023/09/19 02:39:23;;;;;;;19.50;3.72;;;;;;;;;;5007886;27;99455;-62
2023/09/19 02:41:49;;;;;;;17.17;2.75;;;;;;;;;;5011741;27;98486;-63
2023/09/19 02:44:16;;;;;;;15.07;3.50;;;;;;;;;;5011680;27;99370;-63
2023/09/19 02:46:42;;;;;;;16.50;2.90;;;;;;;;;;5007615;27;99938;-62
2023/09/19 02:49:09;;;;;;;13.43;2.08;;;;;;;;;;5011682;27;98508;-62
2023/09/19 02:51:35;;;;;;;9.30;2.42;;;;;;;;;;5011188;27;99277;-63
2023/09/19 02:54:03;;;;;;;12.82;2.47;;;;;;;;;;5016573;27;100323;-62
2023/09/19 02:56:30;;;;;;;17.80;3.40;;;;;;;;;;5012975;27;98582;-62
2023/09/19 02:58:57;;;;;;;22.15;2.70;;;;;;;;;;5013360;27;99335;-62
2023/09/19 03:01:24;;;;;;;17.00;3.35;;;;;;;;;;5014475;27;97824;-64
2023/09/19 03:03:50;;;;;;;16.17;3.05;;;;;;;;;;5015809;27;100738;-63
2023/09/19 03:06:19;;;;;;;12.38;2.40;;;;;;;;;;5014841;27;99635;-63
2023/09/19 03:08:46;;;;;;;11.57;2.95;;;;;;;;;;5011521;27;99724;-63
2023/09/19 03:11:14;;;;;;;17.90;3.47;;;;;;;;;;5012318;27;99913;-67
2023/09/19 03:13:42;;;;;;;11.88;2.72;;;;;;;;;;5008787;27;100518;-67
2023/09/19 03:16:09;;;;;;;11.57;2.92;;;;;;;;;;5011443;27;98521;-67
2023/09/19 03:18:35;;;;;;;17.42;2.70;;;;;;;;;;5012105;27;99178;-67
2023/09/19 03:21:02;;;;;;;12.43;2.70;;;;;;;;;;5015261;27;100463;-67
2023/09/19 03:23:28;;;;;;;12.05;2.35;;;;;;;;;;5016857;27;100489;-68
2023/09/19 03:25:56;;;;;;;16.35;2.88;;;;;;;;;;5009647;27;99704;-68
2023/09/19 03:28:22;;;;;;;8.10;2.40;;;;;;;;;;5009184;27;98677;-68
2023/09/19 03:30:59;;;;;;;13.68;2.67;;;;;;;;;;5009878;27;99127;-68
2023/09/19 03:33:26;;;;;;;9.43;2.30;;;;;;;;;;5008431;27;100429;-67
2023/09/19 03:35:53;;;;;;;25.00;3.28;;;;;;;;;;5011594;27;98569;-68
2023/09/19 03:38:21;;;;;;;12.15;2.55;;;;;;;;;;5014955;27;99171;-68
2023/09/19 03:40:48;;;;;;;15.48;2.80;;;;;;;;;;5014868;28;101312;-68
2023/09/19 03:43:15;;;;;;;16.40;3.35;;;;;;;;;;5015009;27;98739;-68
2023/09/19 03:45:42;;;;;;;25.13;3.83;;;;;;;;;;5008086;27;100425;-67
2023/09/19 03:48:09;;;;;;;17.70;2.70;;;;;;;;;;5012144;27;99226;-67
2023/09/19 03:50:36;;;;;;;20.55;3.08;;;;;;;;;;5015255;27;99306;-68
2023/09/19 03:53:02;;;;;;;17.48;3.15;;;;;;;;;;5009140;27;100384;-67
2023/09/19 03:55:32;;;;;;;18.55;3.28;;;;;;;;;;5014066;27;98534;-67
2023/09/19 03:57:58;;;;;;;19.02;3.03;;;;;;;;;;5016427;27;101033;-68
2023/09/19 04:00:26;;;;;;;11.48;2.55;;;;;;;;;;5009640;27;99444;-68
2023/09/19 04:02:53;;;;;;;13.18;2.30;;;;;;;;;;5013346;27;98647;-68
2023/09/19 04:05:19;;;;;;;20.77;2.90;;;;;;;;;;5018927;27;100700;-65
2023/09/19 04:07:46;;;;;;;34.33;3.15;;;;;;;;;;5011365;27;99113;-67
2023/09/19 04:10:14;;;;;;;22.23;3.28;;;;;;;;;;5009605;27;99242;-67
2023/09/19 04:12:41;;;;;;;14.70;2.95;;;;;;;;;;5012573;27;98673;-62
2023/09/19 04:15:08;;;;;;;15.23;2.75;;;;;;;;;;5020124;27;97977;-64
2023/09/19 04:17:34;;;;;;;11.23;2.40;;;;;;;;;;5018687;27;98642;-62
2023/09/19 04:20:03;;;;;;;9.18;2.10;;;;;;;;;;5016920;27;98532;-61
2023/09/19 04:22:30;;;;;;;14.73;2.78;;;;;;;;;;5024558;27;99720;-63
2023/09/19 04:24:56;;;;;;;20.33;2.53;;;;;;;;;;5019541;27;100867;-62
2023/09/19 04:27:23;;;;;;;16.58;2.70;;;;;;;;;;5011785;27;99000;-63
2023/09/19 04:29:53;;;;;;;14.40;5.85;;;;;;;;;;5012744;27;99155;-63
2023/09/19 04:32:19;;;;;;;17.73;3.43;;;;;;;;;;5014871;27;99678;-62
2023/09/19 04:34:45;;;;;;;13.30;3.20;;;;;;;;;;5010824;27;100386;-63
2023/09/19 04:37:14;;;;;;;16.35;3.33;;;;;;;;;;5013351;27;100024;-63
2023/09/19 04:39:41;;;;;;;15.65;2.67;;;;;;;;;;5011009;27;99723;-63
2023/09/19 04:42:07;;;;;;;18.38;2.80;;;;;;;;;;5016067;27;98622;-64
2023/09/19 04:44:34;;;;;;;14.63;2.40;;;;;;;;;;5013468;27;99196;-64
2023/09/19 04:47:00;;;;;;;20.05;3.08;;;;;;;;;;5019041;27;100058;-63
2023/09/19 04:49:27;;;;;;;14.60;2.55;;;;;;;;;;5011726;27;99847;-63
2023/09/19 04:51:53;;;;;;;12.27;2.30;;;;;;;;;;5015836;27;100522;-63
2023/09/19 04:54:19;;;;;;;14.85;3.67;;;;;;;;;;5016808;27;98486;-63
2023/09/19 04:56:46;;;;;;;10.10;2.65;;;;;;;;;;5010492;27;99566;-62
2023/09/19 04:59:12;;;;;;;16.25;3.35;;;;;;;;;;5013102;27;99466;-62
2023/09/19 05:01:38;;;;;;;17.73;2.90;;;;;;;;;;5016303;27;98821;-61
2023/09/19 05:04:05;;;;;;;8.98;2.60;;;;;;;;;;5016638;27;100224;-62
2023/09/19 05:06:35;;;;;;;14.00;2.55;;;;;;;;;;5012612;27;99472;-62
2023/09/19 05:09:01;;;;;;;15.10;2.93;;;;;;;;;;5019738;27;98761;-62
2023/09/19 05:11:30;;;;;;;16.67;3.20;;;;;;;;;;5011865;27;101779;-63
2023/09/19 05:13:56;;;;;;;23.88;2.63;;;;;;;;;;5018688;27;98625;-63
2023/09/19 05:16:23;;;;;;;8.75;2.42;;;;;;;;;;5014215;27;100261;-63
2023/09/19 05:18:49;;;;;;;16.77;3.15;;;;;;;;;;5012733;27;99899;-62
2023/09/19 05:21:17;;;;;;;14.60;3.47;;;;;;;;;;5009662;27;98511;-67
2023/09/19 05:23:43;;;;;;;11.50;2.25;;;;;;;;;;5017991;27;103794;-67
2023/09/19 05:26:11;;;;;;;12.02;2.92;;;;;;;;;;5014839;27;100683;-66
2023/09/19 05:28:37;;;;;;;10.88;2.35;;;;;;;;;;5008996;27;98170;-66
2023/09/19 05:31:04;;;;;;;8.90;2.42;;;;;;;;;;5017712;27;98908;-65
2023/09/19 05:33:31;;;;;;;12.48;2.83;;;;;;;;;;5010762;27;98924;-67
2023/09/19 05:35:58;;;;;;;15.05;2.88;;;;;;;;;;5014929;27;100196;-65
2023/09/19 05:38:27;;;;;;;16.38;2.42;;;;;;;;;;5014938;27;100785;-67
2023/09/19 05:40:53;;;;;;;14.93;2.25;;;;;;;;;;5015929;27;98796;-67
2023/09/19 05:43:20;;;;;;;15.05;2.97;;;;;;;;;;5010071;27;99147;-67
2023/09/19 05:45:46;;;;;;;18.77;2.38;;;;;;;;;;5024284;27;99545;-67
2023/09/19 05:48:14;;;;;;;21.08;2.92;;;;;;;;;;5015400;27;100285;-64
2023/09/19 05:50:41;;;;;;;20.35;3.05;;;;;;;;;;5013781;27;100000;-68
2023/09/19 05:53:12;;;;;;;15.73;3.03;;;;;;;;;;5016513;27;98861;-67
2023/09/19 05:55:38;;;;;;;19.45;2.80;;;;;;;;;;5012757;27;98703;-66
2023/09/19 05:58:05;;;;;;;15.70;2.38;;;;;;;;;;5010280;27;99488;-66
2023/09/19 06:00:32;;;;;;;19.55;3.15;;;;;;;;;;5015498;27;99274;-66
2023/09/19 06:02:58;;;;;;;10.32;2.90;;;;;;;;;;5013620;27;101048;-68
2023/09/19 06:05:31;;;;;;;23.95;3.58;;;;;;;;;;5012162;27;100654;-67
2023/09/19 06:08:07;;;;;;;15.02;3.05;;;;;;;;;;5012677;27;98667;-66
2023/09/19 06:10:34;;;;;;;17.90;3.10;;;;;;;;;;5011296;27;99529;-66
2023/09/19 06:13:04;;;;;;;19.58;2.83;;;;;;;;;;5008549;27;99954;-66
2023/09/19 06:15:33;;;;;;;21.33;4.17;;;;;;;;;;5023922;27;98586;-69
2023/09/19 06:17:59;;;;;;;14.98;3.53;;;;;;;;;;5017865;27;98702;-68
2023/09/19 06:20:26;;;;;;;13.52;2.97;;;;;;;;;;5009254;27;98963;-67
2023/09/19 06:22:53;;;;;;;14.93;3.15;;;;;;;;;;5014159;27;99651;-66
2023/09/19 06:25:19;;;;;;;10.98;2.63;;;;;;;;;;5021551;27;100164;-66
2023/09/19 06:27:52;;;;;;;15.75;2.85;;;;;;;;;;5010941;27;98607;-66
2023/09/19 06:30:19;;;;;;;13.10;3.00;;;;;;;;;;5011547;27;100663;-67
2023/09/19 06:32:45;;;;;;;14.63;2.63;;;;;;;;;;5017451;27;99452;-63
2023/09/19 06:35:13;;;;;;;13.55;2.83;;;;;;;;;;5015744;27;100497;-63
2023/09/19 06:37:40;;;;;;;19.65;2.72;;;;;;;;;;5012101;27;99824;-63
2023/09/19 06:40:13;;;;;;;18.20;2.72;;;;;;;;;;5011290;27;98788;-63
2023/09/19 06:42:47;;;;;;;16.08;2.50;;;;;;;;;;5015864;27;99245;-63
2023/09/19 06:45:18;;;;;;;12.60;2.80;;;;;;;;;;5008592;27;100215;-63
2023/09/19 06:47:49;;;;;;;12.00;2.30;;;;;;;;;;5015181;27;98593;-63
2023/09/19 06:50:20;;;;;;;16.55;2.58;;;;;;;;;;5017219;27;100705;-63
2023/09/19 06:52:49;;;;;;;17.17;3.13;;;;;;;;;;5012937;27;100143;-63
2023/09/19 06:55:19;;;;;;;17.83;3.33;;;;;;;;;;5016198;27;98602;-63
2023/09/19 06:57:45;;;;;;;14.50;3.00;;;;;;;;;;5020506;27;99342;-63
2023/09/19 07:00:18;;;;;;;23.88;3.38;;;;;;;;;;5009425;27;98674;-64
2023/09/19 07:02:44;;;;;;;16.92;3.28;;;;;;;;;;5013947;27;99734;-64
2023/09/19 07:05:11;;;;;;;21.08;3.08;;;;;;;;;;5015575;27;100500;-62
2023/09/19 07:07:37;;;;;;;22.88;3.40;;;;;;;;;;5012719;27;97823;-62
2023/09/19 07:10:10;;;;;;;14.80;2.83;;;;;;;;;;5009574;27;98544;-62
2023/09/19 07:12:37;;;;;;;20.65;3.08;;;;;;;;;;5007911;27;98769;-62
2023/09/19 07:15:05;;;;;;;13.27;2.60;;;;;;;;;;5015522;27;99357;-62
2023/09/19 07:17:33;;;;;;;19.73;3.00;;;;;;;;;;5012415;27;102853;-63
2023/09/19 07:19:59;;;;;;;22.10;3.20;;;;;;;;;;5018334;27;99389;-63
2023/09/19 07:22:26;;;;;;;11.27;2.47;;;;;;;;;;5016169;27;99253;-63
2023/09/19 07:24:52;;;;;;;15.70;3.15;;;;;;;;;;5010739;27;99942;-63
2023/09/19 07:27:19;;;;;;;12.80;2.40;;;;;;;;;;5015875;27;98686;-63
2023/09/19 07:29:45;;;;;;;20.13;3.28;;;;;;;;;;5012095;27;99166;-63
2023/09/19 07:32:17;;;;;;;18.48;3.35;;;;;;;;;;5009438;27;98777;-63
2023/09/19 07:34:44;;;;;;;21.88;2.80;;;;;;;;;;5011700;27;98470;-63
2023/09/19 07:37:13;;;;;;;23.58;3.22;;;;;;;;;;5009745;27;99258;-62
2023/09/19 07:39:41;;;;;;;17.17;4.32;;;;;;;;;;5006855;27;100287;-63
2023/09/19 07:42:07;;;;;;;17.70;3.28;;;;;;;;;;5011344;27;98543;-63
2023/09/19 07:44:35;;;;;;;13.18;3.03;;;;;;;;;;5009393;27;99447;-63
2023/09/19 07:47:03;;;;;;;20.27;2.88;;;;;;;;;;5019845;27;98585;-63
2023/09/19 07:49:29;;;;;;;26.17;3.30;;;;;;;;;;5013243;27;98858;-63
2023/09/19 07:51:57;;;;;;;11.82;2.90;;;;;;;;;;5012584;27;103461;-63
2023/09/19 07:54:23;;;;;;;14.80;2.67;;;;;;;;;;5015046;27;98605;-63
2023/09/19 07:56:50;;;;;;;16.52;3.17;;;;;;;;;;5014294;27;99533;-63
2023/09/19 07:59:17;;;;;;;15.30;3.05;;;;;;;;;;5012992;27;99482;-62
2023/09/19 08:01:44;;;;;;;17.25;2.88;;;;;;;;;;5014481;27;98554;-63
2023/09/19 08:04:10;;;;;;;14.75;2.95;;;;;;;;;;5017852;27;101034;-63
2023/09/19 08:06:39;;;;;;;15.88;2.95;;;;;;;;;;5012633;27;99057;-63
2023/09/19 08:09:09;;;;;;;17.40;3.50;;;;;;;;;;5007985;27;100090;-64
2023/09/19 08:11:35;;;;;;;18.50;3.13;;;;;;;;;;5010483;27;99465;-64
2023/09/19 08:14:01;;;;;;;21.20;3.60;;;;;;;;;;5011874;27;98642;-64
2023/09/19 08:16:28;;;;;;;22.08;3.72;;;;;;;;;;5016971;27;99148;-64
2023/09/19 08:18:54;;;;;;;17.90;2.65;;;;;;;;;;5011848;27;100436;-64
2023/09/19 08:21:21;;;;;;;19.35;3.40;;;;;;;;;;5015823;27;98638;-64
2023/09/19 08:23:48;;;;;;;16.30;2.75;;;;;;;;;;5010667;27;98756;-63
2023/09/19 08:26:14;;;;;;;17.23;3.42;;;;;;;;;;5016378;27;102197;-64
2023/09/19 08:28:40;;;;;;;16.25;2.83;;;;;;;;;;5020601;27;100956;-64
2023/09/19 08:31:08;;;;;;;24.38;4.18;;;;;;;;;;5012314;27;99578;-64
2023/09/19 08:33:35;;;;;;;21.95;3.88;;;;;;;;;;5014412;27;99796;-63
2023/09/19 08:36:05;;;;;;;17.08;3.50;;;;;;;;;;5015637;27;100328;-64
2023/09/19 08:38:33;;;;;;;25.30;3.33;;;;;;;;;;5013539;27;99431;-63
2023/09/19 08:41:00;;;;;;;16.63;3.40;;;;;;;;;;5009925;27;98647;-63
2023/09/19 08:43:27;;;;;;;19.58;3.67;;;;;;;;;;5018155;27;99520;-63
2023/09/19 08:46:03;;;;;;;20.38;5.03;;;;;;;;;;5015723;27;98912;-63
2023/09/19 08:48:29;;;;;;;15.52;3.08;;;;;;;;;;5012332;27;98753;-64
2023/09/19 08:50:58;;;;;;;26.08;4.25;;;;;;;;;;5017695;27;99994;-63
2023/09/19 08:53:46;;;;;;;18.67;5.07;;;;;;;;;;5018674;27;99350;-66
2023/09/19 08:56:13;;;;;;;13.73;3.22;;;;;;;;;;4999567;27;99884;-66
2023/09/19 08:58:44;;;;;;;15.90;3.45;;;;;;;;;;5011399;27;99554;-66
2023/09/19 09:01:12;;;;;;;18.08;3.42;;;;;;;;;;5014952;27;98638;-67
2023/09/19 09:03:40;;;;;;;21.70;3.42;;;;;;;;;;5012990;27;99263;-66
2023/09/19 09:06:07;;;;;;;19.95;3.25;;;;;;;;;;5027109;27;101204;-66
2023/09/19 09:08:34;;;;;;;18.80;2.78;;;;;;;;;;5019727;27;98810;-67
2023/09/19 09:11:01;;;;;;;31.13;4.20;;;;;;;;;;5018913;27;99742;-66
2023/09/19 09:13:27;;;;;;;14.98;3.45;;;;;;;;;;5014051;27;98539;-66
2023/09/19 09:15:54;;;;;;;19.27;3.20;;;;;;;;;;5012955;27;99200;-66
2023/09/19 09:18:20;;;;;;;14.52;2.97;;;;;;;;;;5014536;27;100544;-66
2023/09/19 09:20:48;;;;;;;17.02;3.30;;;;;;;;;;5012479;27;100920;-66
2023/09/19 09:23:14;;;;;;;17.63;3.10;;;;;;;;;;5012499;27;98926;-66
2023/09/19 09:26:02;;;;;;;15.35;3.65;;;;;;;;;;5014929;27;100544;-67
2023/09/19 09:28:30;;;;;;;18.17;3.10;;;;;;;;;;5010264;27;98708;-66
2023/09/19 09:31:02;;;;;;;12.50;3.63;;;;;;;;;;5021488;27;102463;-67
2023/09/19 09:33:29;;;;;;;17.40;3.03;;;;;;;;;;5007050;27;99181;-66
2023/09/19 09:35:56;;;;;;;19.63;3.13;;;;;;;;;;5009957;27;99197;-67
2023/09/19 09:38:33;;;;;;;21.60;4.13;;;;;;;;;;5008500;27;99687;-67
2023/09/19 09:41:06;;;;;;;17.50;2.80;;;;;;;;;;5010847;27;98922;-67
2023/09/19 09:43:38;;;;;;;16.52;2.78;;;;;;;;;;5009108;27;100006;-67
2023/09/19 09:46:10;;;;;;;20.95;3.72;;;;;;;;;;5014440;27;99996;-66
2023/09/19 09:48:39;;;;;;;22.27;3.97;;;;;;;;;;5009320;27;98557;-66
2023/09/19 09:51:07;;;;;;;16.50;4.07;;;;;;;;;;5014013;27;100871;-66
2023/09/19 09:53:34;;;;;;;18.42;3.30;;;;;;;;;;5012294;27;100544;-67
2023/09/19 09:56:09;;;;;;;22.75;3.67;;;;;;;;;;5010232;27;99195;-67
2023/09/19 09:58:37;;;;;;;20.80;3.00;;;;;;;;;;5009464;27;99653;-66
2023/09/19 10:01:15;;;;;;;17.58;2.92;;;;;;;;;;5009884;27;98032;-66
2023/09/19 10:03:48;;;;;;;17.73;2.70;;;;;;;;;;5009910;27;98416;-66
2023/09/19 10:09:12;;;;;;;15.18;3.25;;;;;;;;;;5007712;27;99283;-66
2023/09/19 10:11:45;;;;;;;10.88;2.35;;;;;;;;;;5009056;27;99959;-66
2023/09/19 10:14:13;;;;;;;15.13;3.28;;;;;;;;;;5013210;27;99276;-67
2023/09/19 10:16:40;;;;;;;18.60;3.60;;;;;;;;;;5014069;27;98587;-67
2023/09/19 10:19:08;;;;;;;13.00;2.50;;;;;;;;;;5008403;27;99576;-67
2023/09/19 10:21:36;;;;;;;14.82;2.72;;;;;;;;;;5017175;27;98919;-67
2023/09/19 10:24:04;;;;;;;10.90;2.75;;;;;;;;;;5010035;27;99171;-67
2023/09/19 10:26:31;;;;;;;12.10;2.20;;;;;;;;;;5009098;27;98673;-67
2023/09/19 10:29:00;;;;;;;10.45;2.55;;;;;;;;;;5008586;27;98580;-67
2023/09/19 10:31:28;;;;;;;9.40;2.60;;;;;;;;;;5015120;27;99305;-67
2023/09/19 10:33:55;;;;;;;12.48;3.30;;;;;;;;;;5014889;27;100334;-66
2023/09/19 10:36:25;;;;;;;13.43;2.67;;;;;;;;;;5010429;27;100261;-66
2023/09/19 10:38:54;;;;;;;8.20;2.63;;;;;;;;;;5013550;27;99195;-66
2023/09/19 10:41:21;;;;;;;12.97;3.17;;;;;;;;;;5011150;27;98704;-66
2023/09/19 10:43:48;;;;;;;10.60;2.50;;;;;;;;;;5012079;27;100540;-66
2023/09/19 10:46:14;;;;;;;18.80;3.15;;;;;;;;;;5012449;27;99422;-67
2023/09/19 10:48:43;;;;;;;14.43;2.33;;;;;;;;;;5006910;27;99419;-66
2023/09/19 10:51:13;;;;;;;12.38;2.13;;;;;;;;;;5010975;27;99566;-66
2023/09/19 10:53:50;;;;;;;13.48;2.42;;;;;;;;;;5011386;27;99515;-66
2023/09/19 10:56:20;;;;;;;10.63;2.58;;;;;;;;;;5014750;27;98752;-66
2023/09/19 10:58:46;;;;;;;11.15;2.28;;;;;;;;;;5013250;27;99370;-66
2023/09/19 11:01:15;;;;;;;16.80;2.70;;;;;;;;;;5015489;27;98799;-66
2023/09/19 11:03:44;;;;;;;20.17;3.30;;;;;;;;;;5008728;27;99138;-66
2023/09/19 11:06:18;;;;;;;15.10;3.07;;;;;;;;;;5008144;27;100445;-67
2023/09/19 11:08:51;;;;;;;11.98;2.17;;;;;;;;;;5009218;27;98538;-66
2023/09/19 11:11:36;;;;;;;22.75;2.70;;;;;;;;;;5013979;27;99091;-65
2023/09/19 11:14:24;;;;;;;16.95;2.90;;;;;;;;;;5008660;27;99937;-63
2023/09/19 11:17:15;;;;;;;11.43;2.92;;;;;;;;;;5013455;27;97975;-62
2023/09/19 11:20:01;;;;;;;14.18;2.40;;;;;;;;;;4997839;28;101614;-63
2023/09/19 11:22:51;;;;;;;8.00;1.85;;;;;;;;;;5016157;27;99868;-62
2023/09/19 11:25:30;;;;;;;10.32;2.75;;;;;;;;;;5007560;27;100095;-63
2023/09/19 11:28:08;;;;;;;7.67;2.27;;;;;;;;;;5013619;27;99593;-63
2023/09/19 11:30:36;;;;;;;16.52;2.28;;;;;;;;;;5008865;27;98807;-62
2023/09/19 11:33:21;;;;;;;15.32;3.20;;;;;;;;;;5015987;27;100268;-63
2023/09/19 11:36:03;;;;;;;7.57;2.28;;;;;;;;;;5009881;27;99969;-63
2023/09/19 11:38:45;;;;;;;18.40;3.20;;;;;;;;;;5016078;27;98521;-63
2023/09/19 11:41:28;;;;;;;11.80;2.30;;;;;;;;;;5019275;27;99283;-63
2023/09/19 11:44:00;;;;;;;11.10;2.25;;;;;;;;;;5009037;27;99083;-63
2023/09/19 11:46:28;;;;;;;12.20;2.78;;;;;;;;;;5013381;27;98586;-62
2023/09/19 11:48:56;;;;;;;10.80;1.88;;;;;;;;;;5008193;27;100936;-63
2023/09/19 11:51:23;;;;;;;9.32;2.08;;;;;;;;;;5008399;27;99356;-62
2023/09/19 11:53:51;;;;;;;10.90;2.55;;;;;;;;;;5009351;27;99929;-62
2023/09/19 11:56:18;;;;;;;5.00;2.05;;;;;;;;;;5012556;27;101476;-62
2023/09/19 11:58:45;;;;;;;8.82;2.17;;;;;;;;;;5011490;27;98931;-62
2023/09/19 12:01:14;;;;;;;16.33;2.63;;;;;;;;;;5008798;27;99104;-62
2023/09/19 12:03:42;;;;;;;9.02;3.17;;;;;;;;;;5007419;27;100489;-63
2023/09/19 12:06:15;;;;;;;5.45;2.10;;;;;;;;;;5011386;27;99821;-63
2023/09/19 12:08:42;;;;;;;10.10;2.10;;;;;;;;;;5012027;27;100213;-64
2023/09/19 12:11:15;;;;;;;6.10;1.50;;;;;;;;;;5006330;27;98708;-63
2023/09/19 12:13:44;;;;;;;10.10;1.60;;;;;;;;;;5012763;27;99124;-62
2023/09/19 12:16:17;;;;;;;8.05;1.70;;;;;;;;;;5016622;27;100689;-62
2023/09/19 12:18:44;;;;;;;12.90;2.53;;;;;;;;;;5010968;27;98695;-60
2023/09/19 12:21:27;;;;;;;6.95;1.30;;;;;;;;;;5015465;27;99652;-61
2023/09/19 12:23:57;;;;;;;5.68;1.50;;;;;;;;;;5007198;27;99582;-59
2023/09/19 12:26:25;;;;;;;9.50;1.67;;;;;;;;;;5006857;27;98760;-59
2023/09/19 12:28:52;;;;;;;9.25;1.80;;;;;;;;;;5011456;27;99225;-60
2023/09/19 12:31:19;;;;;;;7.32;1.55;;;;;;;;;;5018325;27;99563;-61
2023/09/19 12:33:45;;;;;;;9.93;3.75;;;;;;;;;;5014370;27;99160;-62
2023/09/19 12:36:28;;;;;;;8.32;1.70;;;;;;;;;;5014871;27;102372;-62
2023/09/19 12:38:56;;;;;;;8.45;1.50;;;;;;;;;;5014924;27;98705;-63
2023/09/19 12:41:22;;;;;;;5.82;1.70;;;;;;;;;;5011646;27;99694;-63
2023/09/19 12:43:48;;;;;;;5.60;2.17;;;;;;;;;;5015659;27;99471;-63
2023/09/19 12:46:21;;;;;;;8.35;1.50;;;;;;;;;;5016384;27;98554;-64
2023/09/19 12:49:09;;;;;;;6.45;1.40;;;;;;;;;;5010681;27;100210;-63
2023/09/19 12:51:36;;;;;;;12.05;1.75;;;;;;;;;;5012679;27;99557;-63
2023/09/19 12:54:02;;;;;;;6.47;1.65;;;;;;;;;;5025603;27;98660;-65
2023/09/19 12:56:39;;;;;;;7.85;1.85;;;;;;;;;;5011105;27;100843;-66
2023/09/19 12:59:06;;;;;;;4.55;1.40;;;;;;;;;;5011451;27;98206;-65
2023/09/19 13:01:39;;;;;;;8.82;1.80;;;;;;;;;;5014341;27;100025;-66
2023/09/19 13:04:15;;;;;;;6.55;1.55;;;;;;;;;;5015580;27;99450;-65
2023/09/19 13:06:43;;;;;;;9.20;1.13;;;;;;;;;;5013455;27;100098;-68
2023/09/19 13:09:11;;;;;;;8.35;1.45;;;;;;;;;;5010723;27;99862;-64
2023/09/19 13:11:42;;;;;;;8.77;1.70;;;;;;;;;;5013484;27;99545;-64
2023/09/19 13:14:23;;;;;;;8.23;1.30;;;;;;;;;;5011423;27;98673;-65
2023/09/19 13:17:15;;;;;;;13.32;1.40;;;;;;;;;;5021375;27;98869;-64
2023/09/19 13:19:48;;;;;;;8.77;1.40;;;;;;;;;;5022624;27;98671;-66
2023/09/19 13:22:33;;;;;;;5.53;1.10;;;;;;;;;;5012299;27;99939;-65
2023/09/19 13:25:00;;;;;;;4.18;1.25;;;;;;;;;;5010329;27;98777;-68
2023/09/19 13:27:28;;;;;;;10.05;1.50;;;;;;;;;;5015894;27;98987;-68
2023/09/19 13:29:55;;;;;;;7.97;1.10;;;;;;;;;;5010291;27;99181;-68
2023/09/19 13:32:22;;;;;;;9.38;1.65;;;;;;;;;;5018941;27;100234;-69
2023/09/19 13:34:48;;;;;;;5.93;1.25;;;;;;;;;;5016696;27;98573;-67
2023/09/19 13:37:16;;;;;;;8.32;1.50;;;;;;;;;;5015232;27;100178;-64
2023/09/19 13:39:47;;;;;;;8.30;1.38;;;;;;;;;;5009545;27;98896;-65
2023/09/19 13:42:13;;;;;;;6.85;1.65;;;;;;;;;;5015659;27;99889;-64
2023/09/19 13:44:41;;;;;;;2.70;1.02;;;;;;;;;;5017343;27;99586;-65
2023/09/19 13:47:13;;;;;;;11.50;1.45;;;;;;;;;;5015088;27;98614;-64
2023/09/19 13:49:39;;;;;;;4.93;1.30;;;;;;;;;;5014318;27;99326;-64
2023/09/19 13:52:07;;;;;;;6.57;1.10;;;;;;;;;;5016568;27;99778;-64
2023/09/19 13:54:34;;;;;;;9.20;1.45;;;;;;;;;;5009993;27;98554;-64
2023/09/19 13:57:00;;;;;;;7.90;1.38;;;;;;;;;;5015512;27;99235;-65
2023/09/19 13:59:28;;;;;;;7.35;1.23;;;;;;;;;;5018951;27;99534;-64
2023/09/19 14:01:55;;;;;;;10.70;1.42;;;;;;;;;;5019301;27;98971;-64
2023/09/19 14:04:21;;;;;;;9.80;1.90;;;;;;;;;;5009653;27;100455;-64
2023/09/19 14:06:48;;;;;;;7.28;1.45;;;;;;;;;;5016473;27;98523;-64
2023/09/19 14:09:19;;;;;;;10.50;1.33;;;;;;;;;;5009844;27;99113;-64
2023/09/19 14:11:47;;;;;;;4.82;1.23;;;;;;;;;;5014107;27;99434;-64
2023/09/19 14:14:13;;;;;;;11.90;1.35;;;;;;;;;;5022322;27;99574;-64
2023/09/19 14:16:41;;;;;;;4.80;1.60;;;;;;;;;;5014350;27;99478;-64
2023/09/19 14:19:08;;;;;;;5.70;1.38;;;;;;;;;;5013615;27;99510;-65
2023/09/19 14:21:36;;;;;;;11.93;1.33;;;;;;;;;;5021476;27;99287;-65
2023/09/19 14:24:02;;;;;;;4.55;1.10;;;;;;;;;;5010998;27;99466;-66
2023/09/19 14:26:31;;;;;;;6.20;1.80;;;;;;;;;;5012629;27;100847;-67
2023/09/19 14:28:57;;;;;;;5.25;1.40;;;;;;;;;;5013637;27;99850;-68
2023/09/19 14:31:27;;;;;;;3.58;1.58;;;;;;;;;;5009379;27;99512;-63
2023/09/19 14:33:59;;;;;;;3.55;1.48;;;;;;;;;;5009493;27;98640;-63
2023/09/19 14:36:25;;;;;;;7.90;1.90;;;;;;;;;;5013305;27;99157;-63
2023/09/19 14:38:53;;;;;;;5.40;1.50;;;;;;;;;;5016169;27;98770;-63
2023/09/19 14:41:20;;;;;;;6.88;1.88;;;;;;;;;;5009868;27;98498;-63
2023/09/19 14:43:46;;;;;;;6.55;2.00;;;;;;;;;;5014058;27;103189;-65
2023/09/19 14:46:14;;;;;;;9.35;1.23;;;;;;;;;;5013895;27;99287;-65